Time;durP1;ratioP1;P1;durP2;ratioP2;P2;SDS_P1;SDS_P2;PMS_P1;PMS_P2;Temp;Humidity;BMP_temperature;BMP_pressure;BME280_temperature;BME280_humidity;BME280_pressure;Samples;Min_cycle;Max_cycle;Signal;HPM_P1;HPM_P2
2022/04/23 00:00:07;;;;;;;;;;;;;;;14.23;70.03;99728.97;5017545;28;19918;-81
2022/04/23 00:02:59;;;;;;;;;;;;;;;14.14;71.03;99726.50;5020487;28;20298;-82
2022/04/23 00:05:44;;;;;;;;;;;;;;;13.99;71.78;99734.78;5022263;28;19916;-81
2022/04/23 00:08:28;;;;;;;;;;;;;;;13.93;71.74;99736.22;5021434;28;19921;-80
2022/04/23 00:11:12;;;;;;;;;;;;;;;13.90;71.84;99731.50;5026371;28;19929;-81
2022/04/23 00:13:57;;;;;;;;;;;;;;;13.91;72.09;99736.59;5018768;28;20294;-80
2022/04/23 00:16:41;;;;;;;;;;;;;;;13.90;72.05;99742.41;5017046;28;19918;-81
2022/04/23 00:19:26;;;;;;;;;;;;;;;13.91;71.84;99742.06;5016279;28;19926;-80
2022/04/23 00:22:11;;;;;;;;;;;;;;;13.91;72.11;99739.34;5014672;28;19917;-81
2022/04/23 00:24:55;;;;;;;;;;;;;;;13.90;72.26;99745.94;5011157;28;20390;-81
2022/04/23 00:27:40;;;;;;;;;;;;;;;13.85;72.59;99743.50;5029968;28;19918;-81
2022/04/23 00:30:24;;;;;;;;;;;;;;;13.82;72.71;99748.88;5019655;28;19917;-83
2022/04/23 00:33:11;;;;;;;;;;;;;;;13.90;72.46;99742.41;5025513;28;19921;-81
2022/04/23 00:35:55;;;;;;;;;;;;;;;13.94;72.34;99746.81;5009694;28;19922;-79
2022/04/23 00:38:40;;;;;;;;;;;;;;;13.88;72.38;99750.19;5022105;28;19925;-81
2022/04/23 00:44:28;;;;;;;;;;;;;;;13.84;72.35;99749.31;5006309;28;19922;-82
2022/04/23 00:47:12;;;;;;;;;;;;;;;13.78;72.46;99748.81;5014543;28;19921;-80
2022/04/23 00:49:57;;;;;;;;;;;;;;;13.76;72.64;99744.88;5014201;28;19917;-79
2022/04/23 00:52:41;;;;;;;;;;;;;;;13.78;72.67;99732.44;5013010;28;20017;-78
2022/04/23 00:55:27;;;;;;;;;;;;;;;13.90;72.43;99724.09;5019689;28;19917;-80
2022/04/23 00:58:12;;;;;;;;;;;;;;;13.94;72.13;99719.47;5016230;28;19917;-79
2022/04/23 01:00:57;;;;;;;;;;;;;;;13.90;72.25;99720.56;5015818;28;19917;-80
2022/04/23 01:03:45;;;;;;;;;;;;;;;13.84;72.63;99722.78;5013261;28;19917;-79
2022/04/23 01:06:33;;;;;;;;;;;;;;;13.89;72.21;99713.50;5020137;28;19917;-79
2022/04/23 01:09:19;;;;;;;;;;;;;;;13.80;72.34;99705.53;5016723;28;19921;-80
2022/04/23 01:12:05;;;;;;;;;;;;;;;13.87;72.07;99710.34;5016285;28;19921;-79
2022/04/23 01:14:59;;;;;;;;;;;;;;;13.90;72.08;99710.41;5017848;28;19925;-80
2022/04/23 01:17:44;;;;;;;;;;;;;;;13.80;73.03;99718.41;5017115;28;19917;-80
2022/04/23 01:20:28;;;;;;;;;;;;;;;13.86;72.15;99720.50;5019462;28;19917;-80
2022/04/23 01:23:13;;;;;;;;;;;;;;;13.86;72.61;99714.25;5024949;28;19917;-80
2022/04/23 01:25:59;;;;;;;;;;;;;;;13.89;72.65;99710.78;5014207;28;19921;-81
2022/04/23 01:28:43;;;;;;;;;;;;;;;13.84;72.09;99709.13;5012511;28;19917;-80
2022/04/23 01:31:28;;;;;;;;;;;;;;;13.90;71.74;99715.09;5019987;28;19925;-82
2022/04/23 01:34:13;;;;;;;;;;;;;;;13.88;71.42;99722.84;5012127;28;19917;-81
2022/04/23 01:36:57;;;;;;;;;;;;;;;13.77;72.02;99722.63;5018607;28;19917;-83
2022/04/23 01:39:44;;;;;;;;;;;;;;;13.80;72.11;99730.13;5020726;28;19917;-82
2022/04/23 01:42:28;;;;;;;;;;;;;;;13.76;72.20;99726.56;5021101;28;19921;-81
2022/04/23 01:45:12;;;;;;;;;;;;;;;13.75;71.79;99735.88;5021318;28;19917;-81
2022/04/23 01:47:57;;;;;;;;;;;;;;;13.69;72.41;99738.13;5021979;28;19917;-80
2022/04/23 01:50:41;;;;;;;;;;;;;;;13.75;71.77;99726.91;5005872;28;20385;-81
2022/04/23 01:53:26;;;;;;;;;;;;;;;13.75;71.95;99733.16;5021017;28;19922;-81
2022/04/23 01:56:11;;;;;;;;;;;;;;;13.77;71.78;99743.72;5015539;28;19917;-80
2022/04/23 01:58:56;;;;;;;;;;;;;;;13.75;71.93;99743.28;5036958;28;19917;-80
2022/04/23 02:01:41;;;;;;;;;;;;;;;13.71;71.78;99741.25;5012668;28;19917;-82
2022/04/23 02:04:26;;;;;;;;;;;;;;;13.72;72.14;99742.06;5016071;28;19918;-80
2022/04/23 02:07:11;;;;;;;;;;;;;;;13.71;71.94;99746.72;5027022;28;19917;-81
2022/04/23 02:09:56;;;;;;;;;;;;;;;13.73;72.05;99751.03;5036821;28;19917;-80
2022/04/23 02:12:41;;;;;;;;;;;;;;;13.68;72.17;99752.91;5013246;28;19968;-80
2022/04/23 02:15:25;;;;;;;;;;;;;;;13.67;72.30;99753.28;5015012;28;19917;-80
2022/04/23 02:18:11;;;;;;;;;;;;;;;13.66;72.50;99755.22;5014918;28;19917;-79
2022/04/23 02:20:55;;;;;;;;;;;;;;;13.69;72.27;99754.50;5016370;28;20391;-79
2022/04/23 02:23:39;;;;;;;;;;;;;;;13.71;71.98;99752.19;5008917;28;19918;-80
2022/04/23 02:26:24;;;;;;;;;;;;;;;13.78;71.31;99746.09;5017557;28;19917;-79
2022/04/23 02:29:08;;;;;;;;;;;;;;;13.83;70.90;99739.53;5015361;28;20401;-80
2022/04/23 02:31:52;;;;;;;;;;;;;;;13.80;70.70;99737.53;5016185;28;19922;-81
2022/04/23 02:34:37;;;;;;;;;;;;;;;13.74;71.48;99738.97;5012364;28;19918;-82
2022/04/23 02:37:22;;;;;;;;;;;;;;;13.64;71.61;99734.88;5022162;28;19926;-84
2022/04/23 02:40:07;;;;;;;;;;;;;;;13.67;71.49;99732.22;5028558;28;20284;-81
2022/04/23 02:42:53;;;;;;;;;;;;;;;13.65;71.58;99723.59;5030415;28;19918;-81
2022/04/23 02:45:38;;;;;;;;;;;;;;;13.57;72.12;99723.78;5020173;28;19917;-80
2022/04/23 02:48:22;;;;;;;;;;;;;;;13.53;72.73;99737.38;5022644;28;19917;-83
2022/04/23 02:51:07;;;;;;;;;;;;;;;13.51;72.97;99736.94;5013504;28;19917;-80
2022/04/23 02:53:51;;;;;;;;;;;;;;;13.60;72.77;99743.00;5016250;28;19996;-80
2022/04/23 02:56:36;;;;;;;;;;;;;;;13.55;72.71;99737.84;5020530;28;19918;-80
2022/04/23 02:59:20;;;;;;;;;;;;;;;13.48;72.91;99751.31;5032246;28;19917;-78
2022/04/23 03:02:05;;;;;;;;;;;;;;;13.53;72.70;99758.44;5015680;28;19917;-79
2022/04/23 03:04:49;;;;;;;;;;;;;;;13.48;72.92;99756.00;5020443;28;19917;-81
2022/04/23 03:07:35;;;;;;;;;;;;;;;13.41;73.43;99758.59;5022307;28;19917;-81
2022/04/23 03:10:19;;;;;;;;;;;;;;;13.43;73.21;99765.25;5033000;28;19918;-81
2022/04/23 03:13:03;;;;;;;;;;;;;;;13.33;73.60;99759.56;5017847;28;19921;-83
2022/04/23 03:15:49;;;;;;;;;;;;;;;13.30;72.27;99758.34;5021370;28;19921;-80
2022/04/23 03:18:33;;;;;;;;;;;;;;;13.31;71.61;99756.41;5019209;28;19917;-79
2022/04/23 03:21:17;;;;;;;;;;;;;;;13.15;71.52;99759.19;5034791;28;19917;-82
2022/04/23 03:24:02;;;;;;;;;;;;;;;13.02;72.08;99763.13;5017920;28;20301;-79
2022/04/23 03:26:46;;;;;;;;;;;;;;;12.99;72.54;99751.00;5022098;28;19924;-80
2022/04/23 03:29:31;;;;;;;;;;;;;;;12.97;73.09;99752.47;5014100;28;19917;-80
2022/04/23 03:32:16;;;;;;;;;;;;;;;13.00;73.09;99751.78;5042565;28;20381;-79
2022/04/23 03:35:00;;;;;;;;;;;;;;;13.01;73.08;99750.63;5035054;28;20385;-80
2022/04/23 03:37:45;;;;;;;;;;;;;;;13.06;73.19;99756.59;5016853;28;19917;-81
2022/04/23 03:40:29;;;;;;;;;;;;;;;13.09;73.16;99764.09;5016724;28;19917;-79
2022/04/23 03:43:13;;;;;;;;;;;;;;;13.06;73.97;99761.25;5014312;28;19917;-79
2022/04/23 03:45:59;;;;;;;;;;;;;;;13.01;74.31;99764.25;5026147;28;19917;-82
2022/04/23 03:48:44;;;;;;;;;;;;;;;13.08;73.71;99770.69;5022534;28;19939;-81
2022/04/23 03:51:29;;;;;;;;;;;;;;;13.04;73.69;99771.75;5013322;28;20393;-80
2022/04/23 03:54:14;;;;;;;;;;;;;;;13.05;73.14;99778.81;5021722;28;20294;-81
2022/04/23 03:56:58;;;;;;;;;;;;;;;13.07;73.11;99777.28;5041810;28;19917;-83
2022/04/23 03:59:43;;;;;;;;;;;;;;;13.15;73.26;99783.75;5016093;28;19918;-80
2022/04/23 04:02:28;;;;;;;;;;;;;;;13.15;73.52;99779.09;5023847;28;19917;-80
2022/04/23 04:05:13;;;;;;;;;;;;;;;13.14;73.14;99782.16;5046446;28;19918;-81
2022/04/23 04:07:57;;;;;;;;;;;;;;;13.14;73.49;99787.63;5017896;28;20390;-81
2022/04/23 04:10:42;;;;;;;;;;;;;;;13.15;73.40;99790.00;5065801;22;19925;-71
2022/04/23 04:13:27;;;;;;;;;;;;;;;13.11;73.42;99799.19;5049589;28;19921;-71
2022/04/23 04:16:12;;;;;;;;;;;;;;;13.16;72.69;99802.50;5027782;28;19917;-71
2022/04/23 04:18:56;;;;;;;;;;;;;;;13.21;72.50;99807.69;5025924;28;19917;-71
2022/04/23 04:21:43;;;;;;;;;;;;;;;13.28;72.09;99805.13;5027671;28;19917;-72
2022/04/23 04:24:27;;;;;;;;;;;;;;;13.27;72.15;99802.75;5022106;28;19917;-70
2022/04/23 04:27:12;;;;;;;;;;;;;;;13.18;73.75;99799.41;5044409;28;19917;-71
2022/04/23 04:29:56;;;;;;;;;;;;;;;13.40;73.23;99796.03;5053210;28;19917;-71
2022/04/23 04:32:41;;;;;;;;;;;;;;;13.43;72.69;99803.50;5018811;28;19921;-73
2022/04/23 04:35:26;;;;;;;;;;;;;;;13.38;72.98;99811.16;5031663;28;19917;-72
2022/04/23 04:38:10;;;;;;;;;;;;;;;13.37;72.72;99802.19;5035518;28;20947;-72
2022/04/23 04:40:56;;;;;;;;;;;;;;;13.33;73.21;99801.31;5058375;28;19921;-72
2022/04/23 04:43:41;;;;;;;;;;;;;;;13.40;73.30;99815.16;5041220;28;19916;-74
2022/04/23 04:46:26;;;;;;;;;;;;;;;13.37;73.68;99818.56;5028017;28;19917;-72
2022/04/23 04:49:11;;;;;;;;;;;;;;;13.41;73.84;99816.72;5024425;28;19917;-72
2022/04/23 04:51:56;;;;;;;;;;;;;;;13.54;73.23;99811.94;5053525;28;19924;-72
2022/04/23 04:54:40;;;;;;;;;;;;;;;13.49;73.59;99810.28;5035437;28;19917;-72
2022/04/23 04:57:25;;;;;;;;;;;;;;;13.50;73.48;99822.78;5047416;28;19917;-72
2022/04/23 05:00:10;;;;;;;;;;;;;;;13.47;73.66;99812.56;5033968;28;19917;-71
2022/04/23 05:02:54;;;;;;;;;;;;;;;13.50;73.67;99813.81;5058764;28;19921;-72
2022/04/23 05:05:44;;;;;;;;;;;;;;;13.43;74.27;99821.81;5026456;28;19917;-72
2022/04/23 05:08:28;;;;;;;;;;;;;;;13.40;74.23;99825.28;5030106;28;19917;-72
2022/04/23 05:11:12;;;;;;;;;;;;;;;13.41;74.23;99824.13;5031316;28;19917;-72
2022/04/23 05:13:57;;;;;;;;;;;;;;;13.45;73.96;99831.25;5037639;28;19921;-72
2022/04/23 05:16:42;;;;;;;;;;;;;;;13.41;74.60;99835.06;5031013;28;19917;-72
2022/04/23 05:19:27;;;;;;;;;;;;;;;13.36;74.35;99838.06;5036066;28;19917;-72
2022/04/23 05:22:11;;;;;;;;;;;;;;;13.34;74.64;99838.41;5031405;28;19924;-72
2022/04/23 05:24:56;;;;;;;;;;;;;;;13.38;74.43;99842.00;5027972;28;19917;-72
2022/04/23 05:27:40;;;;;;;;;;;;;;;13.36;74.52;99844.28;5046134;28;19916;-72
2022/04/23 05:30:25;;;;;;;;;;;;;;;13.35;74.76;99844.66;5041037;28;19916;-73
2022/04/23 05:33:09;;;;;;;;;;;;;;;13.38;74.46;99847.47;5034723;28;19921;-72
2022/04/23 05:35:54;;;;;;;;;;;;;;;13.36;74.62;99847.03;5042839;28;19920;-72
2022/04/23 05:38:38;;;;;;;;;;;;;;;13.47;74.33;99850.00;5025873;28;19917;-71
2022/04/23 05:41:23;;;;;;;;;;;;;;;13.56;73.72;99854.13;5050707;28;19920;-72
2022/04/23 05:44:07;;;;;;;;;;;;;;;13.43;74.36;99855.38;5025223;28;19925;-72
2022/04/23 05:46:52;;;;;;;;;;;;;;;13.36;74.77;99857.94;5027476;28;20293;-72
2022/04/23 05:49:37;;;;;;;;;;;;;;;13.41;74.57;99863.13;5024156;28;19921;-72
2022/04/23 05:52:22;;;;;;;;;;;;;;;13.36;75.13;99866.13;5020451;28;20304;-71
2022/04/23 05:55:08;;;;;;;;;;;;;;;13.37;75.12;99875.13;5027913;28;19920;-72
2022/04/23 05:57:52;;;;;;;;;;;;;;;13.33;75.26;99869.59;5020596;28;19917;-72
2022/04/23 06:00:37;;;;;;;;;;;;;;;13.31;75.44;99884.75;5025490;28;19917;-72
2022/04/23 06:03:22;;;;;;;;;;;;;;;13.33;75.63;99891.44;5030698;28;19917;-72
2022/04/23 06:06:07;;;;;;;;;;;;;;;13.31;75.47;99895.69;5041386;28;19917;-74
2022/04/23 06:08:52;;;;;;;;;;;;;;;13.34;75.31;99894.97;5041146;28;19917;-73
2022/04/23 06:11:37;;;;;;;;;;;;;;;13.30;75.65;99905.81;5030684;28;20288;-72
2022/04/23 06:14:21;;;;;;;;;;;;;;;13.31;75.71;99910.09;5032076;28;20309;-72
2022/04/23 06:17:11;;;;;;;;;;;;;;;13.34;75.94;99912.13;5043117;28;19917;-73
2022/04/23 06:19:56;;;;;;;;;;;;;;;13.35;76.02;99910.19;5039943;28;19917;-73
2022/04/23 06:22:41;;;;;;;;;;;;;;;13.46;75.64;99911.25;5037526;28;19917;-72
2022/04/23 06:25:25;;;;;;;;;;;;;;;13.52;75.50;99909.81;5036659;28;19917;-71
2022/04/23 06:28:10;;;;;;;;;;;;;;;13.46;75.53;99909.28;5032039;28;20524;-72
2022/04/23 06:30:54;;;;;;;;;;;;;;;13.42;75.71;99908.41;5049794;28;19924;-73
2022/04/23 06:33:39;;;;;;;;;;;;;;;13.46;75.64;99908.53;5012112;28;19925;-72
2022/04/23 06:36:24;;;;;;;;;;;;;;;13.44;75.82;99905.34;5012439;28;19918;-72
2022/04/23 06:39:08;;;;;;;;;;;;;;;13.44;75.59;99897.94;5012282;28;19917;-71
2022/04/23 06:41:53;;;;;;;;;;;;;;;13.47;75.54;99896.44;5056389;28;19917;-72
2022/04/23 06:44:40;;;;;;;;;;;;;;;13.47;75.85;99899.97;5018741;28;19939;-72
2022/04/23 06:47:24;;;;;;;;;;;;;;;13.58;75.52;99901.00;5023523;28;19921;-71
2022/04/23 06:50:09;;;;;;;;;;;;;;;13.54;75.40;99894.69;5031933;28;19921;-71
2022/04/23 06:52:53;;;;;;;;;;;;;;;13.56;75.37;99892.34;5031749;28;19921;-72
2022/04/23 06:55:38;;;;;;;;;;;;;;;13.67;75.10;99892.59;5024254;28;19917;-72
2022/04/23 06:58:22;;;;;;;;;;;;;;;13.73;75.17;99896.66;5051845;28;19917;-72
2022/04/23 07:01:07;;;;;;;;;;;;;;;13.85;75.06;99898.50;5051768;28;19917;-74
2022/04/23 07:03:51;;;;;;;;;;;;;;;13.92;74.36;99898.63;5051576;28;19917;-71
2022/04/23 07:06:36;;;;;;;;;;;;;;;13.94;74.98;99904.53;5036329;28;19917;-71
2022/04/23 07:09:20;;;;;;;;;;;;;;;14.02;74.44;99907.06;5062740;28;19921;-72
2022/04/23 07:12:05;;;;;;;;;;;;;;;14.15;73.55;99907.75;5049551;28;19926;-72
2022/04/23 07:14:51;;;;;;;;;;;;;;;14.11;73.18;99906.88;5035225;28;19917;-72
2022/04/23 07:17:36;;;;;;;;;;;;;;;14.30;72.24;99898.69;5048311;28;19917;-72
2022/04/23 07:20:20;;;;;;;;;;;;;;;14.30;72.55;99904.16;5050823;28;19917;-72
2022/04/23 07:26:08;;;;;;;;;;;;;;;14.39;71.90;99912.16;5015102;28;19917;-73
2022/04/23 07:28:53;;;;;;;;;;;;;;;14.40;71.86;99917.28;5015355;28;19917;-71
2022/04/23 07:31:38;;;;;;;;;;;;;;;14.40;71.49;99913.75;5015157;28;19918;-72
2022/04/23 07:37:28;;;;;;;;;;;;;;;14.46;71.42;99912.31;5033231;28;19917;-72
2022/04/23 07:40:13;;;;;;;;;;;;;;;14.52;70.80;99900.72;5034379;28;19917;-72
2022/04/23 07:42:57;;;;;;;;;;;;;;;14.64;70.76;99902.50;5036990;28;19917;-71
2022/04/23 07:45:43;;;;;;;;;;;;;;;14.63;71.26;99913.81;5025100;28;19925;-72
2022/04/23 07:48:28;;;;;;;;;;;;;;;14.68;70.46;99916.25;5034162;28;20300;-72
2022/04/23 07:51:12;;;;;;;;;;;;;;;14.63;70.66;99919.28;5026453;28;19921;-75
2022/04/23 07:53:57;;;;;;;;;;;;;;;14.76;70.55;99912.50;5020450;28;19921;-71
2022/04/23 07:56:42;;;;;;;;;;;;;;;14.75;70.84;99914.44;5028110;28;19917;-72
2022/04/23 07:59:26;;;;;;;;;;;;;;;14.74;71.25;99917.53;5025487;28;19917;-73
2022/04/23 08:02:11;;;;;;;;;;;;;;;14.77;70.77;99923.09;5032075;28;19925;-72
2022/04/23 08:04:56;;;;;;;;;;;;;;;14.91;70.05;99925.28;5026954;28;19917;-72
2022/04/23 08:07:42;;;;;;;;;;;;;;;14.93;70.14;99925.72;5028661;28;19917;-71
2022/04/23 08:10:26;;;;;;;;;;;;;;;15.01;69.62;99930.16;5022086;28;19917;-72
2022/04/23 08:13:11;;;;;;;;;;;;;;;15.17;69.39;99919.91;5047842;28;20395;-73
2022/04/23 08:15:55;;;;;;;;;;;;;;;15.11;69.70;99928.78;5034059;28;19917;-72
2022/04/23 08:18:40;;;;;;;;;;;;;;;15.13;68.84;99919.06;5024164;28;20376;-72
2022/04/23 08:21:24;;;;;;;;;;;;;;;15.43;67.62;99924.63;5026068;28;19921;-76
2022/04/23 08:24:09;;;;;;;;;;;;;;;15.92;64.90;99921.88;5024203;28;19917;-75
2022/04/23 08:26:53;;;;;;;;;;;;;;;16.33;63.58;99922.03;5023799;28;19965;-72
2022/04/23 08:32:43;;;;;;;;;;;;;;;16.63;62.21;99933.78;5036765;28;19921;-72
2022/04/23 08:35:27;;;;;;;;;;;;;;;16.97;61.84;99940.84;5030511;28;19917;-72
2022/04/23 08:38:11;;;;;;;;;;;;;;;17.09;60.79;99943.31;5032185;28;19917;-73
2022/04/23 08:40:56;;;;;;;;;;;;;;;17.12;60.77;99946.50;5038101;28;19917;-72
2022/04/23 08:43:41;;;;;;;;;;;;;;;17.19;60.40;99949.28;5022438;28;19917;-73
2022/04/23 08:46:26;;;;;;;;;;;;;;;17.49;58.80;99947.22;5034509;28;19928;-72
2022/04/23 08:49:13;;;;;;;;;;;;;;;17.16;59.25;99945.34;5049343;28;19918;-74
2022/04/23 08:52:09;;;;;;;;;;;;;;;17.42;59.16;99941.66;5033221;28;19917;-74
2022/04/23 08:54:56;;;;;;;;;;;;;;;17.87;58.23;99940.47;5021700;28;20115;-74
2022/04/23 08:57:43;;;;;;;;;;;;;;;17.72;57.33;99942.31;5055714;28;19917;-74
2022/04/23 09:00:29;;;;;;;;;;;;;;;18.07;56.56;99938.22;5013383;28;19918;-74
2022/04/23 09:03:14;;;;;;;;;;;;;;;18.32;55.47;99939.94;5017867;28;19917;-74
2022/04/23 09:06:00;;;;;;;;;;;;;;;18.48;55.63;99949.84;5018606;28;19980;-74
2022/04/23 09:09:03;;;;;;;;;;;;;;;18.41;55.58;99963.56;5026455;28;19921;-74
2022/04/23 09:11:52;;;;;;;;;;;;;;;18.05;56.85;99959.81;5013083;28;20301;-75
2022/04/23 09:14:36;;;;;;;;;;;;;;;18.07;57.05;99955.53;5025709;28;19922;-74
2022/04/23 09:24:10;;;;;;;;;;;;;;;18.46;54.26;99950.22;5051854;28;19917;-74
2022/04/23 09:27:03;;;;;;;;;;;;;;;18.18;55.52;99958.34;5025157;28;20296;-74
2022/04/23 09:29:59;;;;;;;;;;;;;;;18.15;56.01;99964.59;5046454;28;19917;-74
2022/04/23 09:32:57;;;;;;;;;;;;;;;17.93;56.08;99958.16;5024059;28;19921;-74
2022/04/23 09:35:52;;;;;;;;;;;;;;;18.05;57.00;99962.56;5012508;28;19917;-74
2022/04/23 09:38:36;;;;;;;;;;;;;;;17.72;56.49;99967.06;5024624;28;19917;-74
2022/04/23 09:41:30;;;;;;;;;;;;;;;17.56;57.56;99971.22;5028622;28;19926;-74
2022/04/23 09:44:14;;;;;;;;;;;;;;;17.56;56.92;99968.47;5040670;28;19922;-74
2022/04/23 09:46:59;;;;;;;;;;;;;;;17.66;57.46;99976.84;5025286;28;20338;-74
2022/04/23 09:49:54;;;;;;;;;;;;;;;17.13;57.26;99968.06;5028623;28;20422;-74
2022/04/23 09:52:39;;;;;;;;;;;;;;;17.19;57.21;99971.28;5029504;28;19921;-74
2022/04/23 09:55:23;;;;;;;;;;;;;;;16.90;55.88;99965.50;5030280;28;19917;-74
2022/04/23 09:58:09;;;;;;;;;;;;;;;17.08;56.08;99966.47;5027881;28;20372;-74
2022/04/23 10:00:55;;;;;;;;;;;;;;;17.19;58.11;99972.06;5039725;28;20616;-74
2022/04/23 10:03:44;;;;;;;;;;;;;;;16.75;59.96;99982.97;5021827;28;19917;-74
2022/04/23 10:06:35;;;;;;;;;;;;;;;16.30;61.63;99974.91;5033399;28;19917;-75
2022/04/23 10:09:21;;;;;;;;;;;;;;;16.48;61.74;99987.69;5030796;28;19917;-72
2022/04/23 10:12:07;;;;;;;;;;;;;;;16.61;61.97;99982.78;5044757;22;19905;-76
2022/04/23 10:14:56;;;;;;;;;;;;;;;16.99;59.14;99987.97;5032710;28;19936;-75
2022/04/23 10:17:41;;;;;;;;;;;;;;;16.79;59.08;99994.00;5027066;28;19917;-76
2022/04/23 10:20:29;;;;;;;;;;;;;;;16.62;58.74;99987.13;5029853;28;19917;-73
2022/04/23 10:23:18;;;;;;;;;;;;;;;16.95;58.08;99989.09;5034840;28;19917;-73
2022/04/23 10:26:24;;;;;;;;;;;;;;;17.00;58.67;99984.03;5022033;28;19921;-73
2022/04/23 10:29:09;;;;;;;;;;;;;;;17.60;56.14;99983.84;5023366;28;19917;-74
2022/04/23 10:32:13;;;;;;;;;;;;;;;17.51;57.48;99981.41;5026451;28;19921;-74
2022/04/23 10:34:58;;;;;;;;;;;;;;;17.77;56.25;99977.72;5030466;28;19921;-72
2022/04/23 10:37:44;;;;;;;;;;;;;;;18.03;56.38;99981.44;5046501;28;19917;-71
2022/04/23 10:40:34;;;;;;;;;;;;;;;17.94;56.73;99988.06;5029142;28;19921;-71
2022/04/23 10:43:19;;;;;;;;;;;;;;;17.93;54.87;99988.44;5031820;28;19917;-72
2022/04/23 10:46:04;;;;;;;;;;;;;;;18.60;53.57;99988.06;5031724;28;19917;-72
2022/04/23 10:48:49;;;;;;;;;;;;;;;19.00;52.53;99976.00;5031883;28;20388;-73
2022/04/23 10:51:43;;;;;;;;;;;;;;;20.89;46.01;99975.44;5034250;28;19917;-72
2022/04/23 10:54:40;;;;;;;;;;;;;;;22.26;43.04;99983.09;5031597;28;19921;-74
2022/04/23 10:57:25;;;;;;;;;;;;;;;24.20;38.25;99987.88;5033769;28;19917;-72
2022/04/23 11:00:11;;;;;;;;;;;;;;;26.63;34.04;99985.38;5034328;28;19921;-72
2022/04/23 11:02:56;;;;;;;;;;;;;;;23.25;39.36;99981.88;5032764;28;19917;-73
2022/04/23 11:14:55;;;;;;;;;;;;;;;23.67;40.11;99972.91;5033926;28;19921;-72
2022/04/23 11:17:39;;;;;;;;;;;;;;;25.09;35.03;99970.97;5029820;28;19917;-74
2022/04/23 11:20:28;;;;;;;;;;;;;;;29.80;28.65;99973.91;5041939;28;19917;-74
2022/04/23 11:23:13;;;;;;;;;;;;;;;24.27;36.22;99965.53;5037474;28;19917;-75
2022/04/23 11:25:57;;;;;;;;;;;;;;;24.06;36.74;99965.91;5038132;28;19924;-73
2022/04/23 11:28:42;;;;;;;;;;;;;;;26.49;33.06;99955.13;5034513;28;19921;-72
2022/04/23 11:31:27;;;;;;;;;;;;;;;29.85;27.67;99962.06;5034535;28;19917;-72
2022/04/23 11:34:12;;;;;;;;;;;;;;;30.80;26.35;99965.47;5035510;28;19921;-73
2022/04/23 11:36:58;;;;;;;;;;;;;;;31.12;24.68;99969.63;5042352;28;19938;-73
2022/04/23 11:39:42;;;;;;;;;;;;;;;31.30;25.30;99970.31;5025286;28;19921;-73
2022/04/23 11:42:38;;;;;;;;;;;;;;;32.57;22.99;99965.06;5038518;28;19916;-72
2022/04/23 11:45:23;;;;;;;;;;;;;;;30.85;26.02;99962.03;5033454;28;19917;-74
2022/04/23 11:48:11;;;;;;;;;;;;;;;31.69;24.39;99951.56;5032789;28;19921;-75
2022/04/23 11:51:05;;;;;;;;;;;;;;;29.76;28.37;99943.22;5032343;28;19917;-73
2022/04/23 11:53:57;;;;;;;;;;;;;;;25.54;34.38;99936.91;5032771;28;19921;-75
2022/04/23 11:56:45;;;;;;;;;;;;;;;22.16;41.71;99932.94;5034625;28;19921;-72
2022/04/23 11:59:40;;;;;;;;;;;;;;;21.21;43.56;99925.50;5043080;28;19917;-72
2022/04/23 12:02:25;;;;;;;;;;;;;;;21.74;43.15;99925.03;5037392;28;19917;-74
2022/04/23 12:05:10;;;;;;;;;;;;;;;20.69;44.50;99925.41;5040872;28;19921;-74
2022/04/23 12:07:54;;;;;;;;;;;;;;;21.11;44.42;99929.09;5033113;28;20423;-73
2022/04/23 12:10:41;;;;;;;;;;;;;;;20.83;44.76;99930.03;5033841;28;19917;-73
2022/04/23 12:13:25;;;;;;;;;;;;;;;21.28;43.64;99919.94;5036107;28;20392;-74
2022/04/23 12:16:10;;;;;;;;;;;;;;;22.26;40.44;99908.31;5032877;28;20205;-70
2022/04/23 12:18:58;;;;;;;;;;;;;;;20.85;44.76;99908.34;5040865;28;19917;-71
2022/04/23 12:21:56;;;;;;;;;;;;;;;20.91;44.66;99917.78;5027733;28;19917;-72
2022/04/23 12:24:41;;;;;;;;;;;;;;;20.64;44.76;99905.69;5026788;28;19917;-71
2022/04/23 12:27:26;;;;;;;;;;;;;;;20.76;43.90;99903.25;5033059;28;19917;-70
2022/04/23 12:42:32;;;;;;;;;;;;;;;20.98;43.88;99881.78;5028087;28;19918;-72
2022/04/23 12:45:20;;;;;;;;;;;;;;;20.69;44.51;99872.09;5032067;28;20364;-71
2022/04/23 12:48:05;;;;;;;;;;;;;;;21.04;43.35;99876.59;5034647;28;19917;-71
2022/04/23 12:51:01;;;;;;;;;;;;;;;21.64;42.84;99873.34;5036184;28;19917;-72
2022/04/23 12:53:45;;;;;;;;;;;;;;;21.42;42.22;99869.22;5030960;28;20288;-72
2022/04/23 12:56:34;;;;;;;;;;;;;;;20.82;44.75;99859.41;5054860;28;19917;-72
2022/04/23 12:59:19;;;;;;;;;;;;;;;20.78;45.48;99869.69;5040988;28;20391;-72
2022/04/23 13:02:03;;;;;;;;;;;;;;;20.78;45.17;99864.94;5036199;28;19925;-72
2022/04/23 13:04:48;;;;;;;;;;;;;;;20.51;46.31;99863.94;5026846;28;19917;-72
2022/04/23 13:10:35;;;;;;;;;;;;;;;20.31;45.94;99835.25;5034654;28;19917;-70
2022/04/23 13:13:20;;;;;;;;;;;;;;;20.87;43.91;99829.38;5038866;28;19921;-70
2022/04/23 13:16:06;;;;;;;;;;;;;;;21.00;44.03;99826.09;5040655;28;19917;-70
2022/04/23 13:18:51;;;;;;;;;;;;;;;20.52;46.35;99831.56;5045420;28;20308;-71
2022/04/23 13:21:36;;;;;;;;;;;;;;;20.29;46.27;99830.09;5033606;28;19917;-71
2022/04/23 13:24:21;;;;;;;;;;;;;;;20.76;45.13;99825.88;5040371;28;19924;-70
2022/04/23 13:27:05;;;;;;;;;;;;;;;20.82;44.61;99820.72;5032115;28;19917;-71
2022/04/23 13:29:52;;;;;;;;;;;;;;;21.24;42.81;99823.16;5029972;28;19917;-71
2022/04/23 13:32:39;;;;;;;;;;;;;;;20.60;44.48;99822.03;5023711;28;19917;-70
2022/04/23 13:35:24;;;;;;;;;;;;;;;20.82;44.20;99831.78;5032365;28;19921;-72
2022/04/23 13:38:13;;;;;;;;;;;;;;;20.29;46.00;99823.78;5043029;28;19917;-71
2022/04/23 13:40:58;;;;;;;;;;;;;;;20.43;47.29;99820.94;5034510;28;20304;-70
2022/04/23 13:43:43;;;;;;;;;;;;;;;19.74;46.54;99840.16;5033771;28;20288;-70
2022/04/23 13:46:32;;;;;;;;;;;;;;;19.68;47.88;99825.97;5039148;28;20107;-71
2022/04/23 13:49:17;;;;;;;;;;;;;;;19.39;49.71;99824.44;5047333;28;19918;-70
2022/04/23 13:52:04;;;;;;;;;;;;;;;18.52;53.72;99829.47;5034716;28;19917;-72
2022/04/23 13:54:48;;;;;;;;;;;;;;;17.93;56.85;99843.41;5039927;28;19921;-72
2022/04/23 13:57:33;;;;;;;;;;;;;;;17.85;57.54;99838.28;5029934;28;20304;-71
2022/04/23 14:00:18;;;;;;;;;;;;;;;17.95;57.14;99837.53;5033861;28;19917;-70
2022/04/23 14:12:12;;;;;;;;;;;;;;;17.78;57.17;99817.00;5039913;28;19917;-70
2022/04/23 14:14:57;;;;;;;;;;;;;;;17.81;55.66;99810.75;5041709;28;19921;-71
2022/04/23 14:17:41;;;;;;;;;;;;;;;17.85;55.58;99808.81;5030910;28;19918;-71
2022/04/23 14:20:26;;;;;;;;;;;;;;;17.99;55.47;99810.81;5041914;28;20292;-71
2022/04/23 14:23:10;;;;;;;;;;;;;;;17.92;55.05;99806.09;5036283;28;20392;-72
2022/04/23 14:25:55;;;;;;;;;;;;;;;17.80;55.32;99811.94;5034954;28;19921;-71
2022/04/23 14:28:39;;;;;;;;;;;;;;;17.77;56.04;99803.69;5041356;28;20295;-71
2022/04/23 14:31:24;;;;;;;;;;;;;;;17.78;55.90;99806.00;5036829;28;20399;-71
2022/04/23 14:34:08;;;;;;;;;;;;;;;17.77;56.26;99801.72;5041506;28;19922;-71
2022/04/23 14:36:52;;;;;;;;;;;;;;;17.64;56.54;99800.44;5035533;28;20292;-72
2022/04/23 14:39:37;;;;;;;;;;;;;;;17.73;56.63;99800.88;5037787;28;19917;-72
2022/04/23 14:42:23;;;;;;;;;;;;;;;17.73;56.13;99800.88;5050042;28;19924;-72
2022/04/23 14:45:08;;;;;;;;;;;;;;;17.72;56.74;99796.59;5043581;28;20380;-72
2022/04/23 14:47:53;;;;;;;;;;;;;;;17.76;56.66;99788.34;5034503;28;19917;-71
2022/04/23 14:53:42;;;;;;;;;;;;;;;17.85;56.40;99773.06;5059343;28;19921;-72
2022/04/23 14:56:28;;;;;;;;;;;;;;;17.95;56.45;99771.53;5041028;28;19917;-71
2022/04/23 14:59:13;;;;;;;;;;;;;;;17.83;56.63;99769.09;5042338;28;19920;-72
2022/04/23 15:01:57;;;;;;;;;;;;;;;17.80;57.49;99778.13;5036793;28;19920;-71
2022/04/23 15:04:42;;;;;;;;;;;;;;;17.73;57.70;99773.38;5039280;28;19917;-72
2022/04/23 15:07:26;;;;;;;;;;;;;;;17.71;57.30;99775.75;5036686;28;19920;-71
2022/04/23 15:10:10;;;;;;;;;;;;;;;17.68;57.23;99772.97;5050434;28;19917;-72
2022/04/23 15:12:55;;;;;;;;;;;;;;;17.68;57.29;99771.00;5040153;28;20304;-71
2022/04/23 15:15:39;;;;;;;;;;;;;;;17.52;57.92;99778.78;5038147;28;19921;-71
2022/04/23 15:18:24;;;;;;;;;;;;;;;17.51;57.72;99779.94;5044048;28;19917;-71